Time;durP1;ratioP1;P1;durP2;ratioP2;P2;SDS_P1;SDS_P2;PMS_P1;PMS_P2;Temp;Humidity;BMP_temperature;BMP_pressure;BME280_temperature;BME280_humidity;BME280_pressure;Samples;Min_cycle;Max_cycle;Signal;HPM_P1;HPM_P2
2021/11/30 00:00:30;;;;;;;;;;;;;;;;;;2055733;28;20287;-46
2021/11/30 00:01:31;;;;;;;;;;;;;;;;;;2056941;28;19926;-47
2021/11/30 00:02:32;;;;;;;;;;;;;;;;;;2057291;28;19933;-47
2021/11/30 00:03:33;;;;;;;;;;;;;;;;;;2055420;28;20013;-46
2021/11/30 00:04:34;;;;;;;;;;;;;;;;;;2057459;28;20021;-47
2021/11/30 00:05:35;;;;;;;;;;;;;;;;;;2056603;28;19972;-47
2021/11/30 00:06:36;;;;;;;;;;;;;;;;;;2055143;28;19926;-47
2021/11/30 00:07:37;;;;;;;;;;;;;;;;;;2057441;28;19926;-47
2021/11/30 00:08:38;;;;;;;;;;;;;;;;;;2054340;28;19961;-46
2021/11/30 00:10:59;;;;;;;;;;;;;;;;;;2057282;28;20005;-46
2021/11/30 00:12:00;;;;;;;;;;;;;;;;;;2053975;28;20471;-48
2021/11/30 00:13:00;;;;;;;;;;;;;;;;;;2057496;28;19968;-47
2021/11/30 00:14:02;;;;;;;;;;;;;;;;;;2057506;28;20327;-47
2021/11/30 00:15:02;;;;;;;;;;;;;;;;;;2055229;28;19997;-43
2021/11/30 00:16:03;;;;;;;;;;;;;;;;;;2057358;28;20308;-43
2021/11/30 00:17:04;;;;;;;;;;;;;;;;;;2056320;28;20427;-43
2021/11/30 00:18:05;;;;;;;;;;;;;;;;;;2054584;28;19927;-43
2021/11/30 00:19:06;;;;;;;;;;;;;;;;;;2057439;28;20399;-43
2021/11/30 00:20:08;;;;;;;;;;;;;;;;;;2055855;28;19926;-43
2021/11/30 00:21:09;;;;;;;;;;;;;;;;;;2055439;28;21067;-43
2021/11/30 00:22:10;;;;;;;;;;;;;;;;;;2057252;28;20391;-42
2021/11/30 00:23:11;;;;;;;;;;;;;;;;;;2056626;28;20299;-43
2021/11/30 00:24:12;;;;;;;;;;;;;;;;;;2055584;28;20057;-43
2021/11/30 00:25:13;;;;;;;;;;;;;;;;;;2057308;28;20362;-43
2021/11/30 00:26:13;;;;;;;;;;;;;;;;;;2055215;28;20013;-43
2021/11/30 00:27:14;;;;;;;;;;;;;;;;;;2056000;28;19933;-43
2021/11/30 00:28:15;;;;;;;;;;;;;;;;;;2057370;28;20350;-43
2021/11/30 00:29:16;;;;;;;;;;;;;;;;;;2055076;28;19926;-43
2021/11/30 00:30:17;;;;;;;;;;;;;;;;;;2057170;28;20022;-43
2021/11/30 00:31:20;;;;;;;;;;;;;;;;;;2057191;28;20287;-43
2021/11/30 00:32:21;;;;;;;;;;;;;;;;;;2053715;28;19935;-43
2021/11/30 00:33:22;;;;;;;;;;;;;;;;;;2056908;28;20032;-43
2021/11/30 00:34:23;;;;;;;;;;;;;;;;;;2057237;28;19926;-43
2021/11/30 00:35:23;;;;;;;;;;;;;;;;;;2054856;28;20338;-43
2021/11/30 00:36:24;;;;;;;;;;;;;;;;;;2057209;28;19926;-43
2021/11/30 00:37:25;;;;;;;;;;;;;;;;;;2057157;28;20389;-45
2021/11/30 00:38:27;;;;;;;;;;;;;;;;;;2054966;28;19926;-43
2021/11/30 00:39:27;;;;;;;;;;;;;;;;;;2057219;28;20402;-43
2021/11/30 00:40:28;;;;;;;;;;;;;;;;;;2057184;28;19926;-43
2021/11/30 00:41:29;;;;;;;;;;;;;;;;;;2054155;28;20353;-43
2021/11/30 00:42:31;;;;;;;;;;;;;;;;;;2057106;28;19933;-43
2021/11/30 00:43:33;;;;;;;;;;;;;;;;;;2056202;28;20013;-43
2021/11/30 00:44:36;;;;;;;;;;;;;;;;;;2054937;28;20040;-43
2021/11/30 00:45:42;;;;;;;;;;;;;;;;;;2057289;28;20013;-43
2021/11/30 00:46:43;;;;;;;;;;;;;;;;;;2056517;28;19977;-43
2021/11/30 00:47:50;;;;;;;;;;;;;;;;;;2054773;28;20028;-43
2021/11/30 00:48:51;;;;;;;;;;;;;;;;;;2057044;28;20392;-43
2021/11/30 00:49:52;;;;;;;;;;;;;;;;;;2055617;28;20009;-44
2021/11/30 00:50:53;;;;;;;;;;;;;;;;;;2056365;28;19930;-44
2021/11/30 00:51:54;;;;;;;;;;;;;;;;;;2057063;28;19985;-43
2021/11/30 00:52:55;;;;;;;;;;;;;;;;;;2055152;28;19930;-42
2021/11/30 00:53:56;;;;;;;;;;;;;;;;;;2056929;28;20008;-45
2021/11/30 00:54:57;;;;;;;;;;;;;;;;;;2057198;28;19926;-43
2021/11/30 00:55:58;;;;;;;;;;;;;;;;;;2054612;28;19936;-43
2021/11/30 00:56:59;;;;;;;;;;;;;;;;;;2049173;28;19933;-43
2021/11/30 00:58:00;;;;;;;;;;;;;;;;;;2049220;28;19970;-43
2021/11/30 00:59:01;;;;;;;;;;;;;;;;;;2052698;28;19930;-43
2021/11/30 01:00:02;;;;;;;;;;;;;;;;;;2057117;28;20024;-43
2021/11/30 01:01:03;;;;;;;;;;;;;;;;;;2057086;28;20368;-43
2021/11/30 01:02:04;;;;;;;;;;;;;;;;;;2053714;28;19937;-44
2021/11/30 01:03:05;;;;;;;;;;;;;;;;;;2052542;28;19926;-43
2021/11/30 01:04:06;;;;;;;;;;;;;;;;;;2065905;28;20017;-43
2021/11/30 01:05:07;;;;;;;;;;;;;;;;;;2057012;28;19934;-43
2021/11/30 01:06:07;;;;;;;;;;;;;;;;;;2058618;28;19964;-43
2021/11/30 01:07:11;;;;;;;;;;;;;;;;;;2058532;28;20402;-43
2021/11/30 01:08:11;;;;;;;;;;;;;;;;;;2055469;28;19976;-44
2021/11/30 01:09:12;;;;;;;;;;;;;;;;;;2058428;28;19926;-43
2021/11/30 01:10:13;;;;;;;;;;;;;;;;;;2058154;28;20364;-43
2021/11/30 01:11:14;;;;;;;;;;;;;;;;;;2056878;28;19937;-44
2021/11/30 01:12:15;;;;;;;;;;;;;;;;;;2058430;28;19969;-43
2021/11/30 01:13:16;;;;;;;;;;;;;;;;;;2057999;28;20284;-43
2021/11/30 01:14:17;;;;;;;;;;;;;;;;;;2056541;28;20619;-44
2021/11/30 01:15:18;;;;;;;;;;;;;;;;;;2058617;28;19932;-43
2021/11/30 01:16:19;;;;;;;;;;;;;;;;;;2057758;28;20013;-43
2021/11/30 01:17:20;;;;;;;;;;;;;;;;;;2056592;28;20426;-43
2021/11/30 01:18:20;;;;;;;;;;;;;;;;;;2058428;28;20450;-45
2021/11/30 01:19:21;;;;;;;;;;;;;;;;;;2057707;28;19926;-43
2021/11/30 01:20:22;;;;;;;;;;;;;;;;;;2057110;28;20020;-43
2021/11/30 01:21:23;;;;;;;;;;;;;;;;;;2058468;28;19926;-43
2021/11/30 01:22:24;;;;;;;;;;;;;;;;;;2057338;28;20490;-43
2021/11/30 01:23:26;;;;;;;;;;;;;;;;;;2056940;28;19938;-43
2021/11/30 01:24:26;;;;;;;;;;;;;;;;;;2058532;28;20020;-43
2021/11/30 01:25:28;;;;;;;;;;;;;;;;;;2055850;28;19927;-43
2021/11/30 01:26:28;;;;;;;;;;;;;;;;;;2057705;28;20504;-44
2021/11/30 01:27:29;;;;;;;;;;;;;;;;;;2058454;28;19926;-43
2021/11/30 01:28:30;;;;;;;;;;;;;;;;;;2056496;28;19926;-43
2021/11/30 01:29:31;;;;;;;;;;;;;;;;;;2057742;28;19932;-43
2021/11/30 01:30:32;;;;;;;;;;;;;;;;;;2058492;28;20006;-43
2021/11/30 01:31:33;;;;;;;;;;;;;;;;;;2057375;28;20406;-43
2021/11/30 01:32:34;;;;;;;;;;;;;;;;;;2057023;28;19930;-43
2021/11/30 01:33:35;;;;;;;;;;;;;;;;;;2058443;28;19926;-43
2021/11/30 01:34:36;;;;;;;;;;;;;;;;;;2056032;28;20329;-43
2021/11/30 01:35:37;;;;;;;;;;;;;;;;;;2058369;28;19933;-43
2021/11/30 01:36:38;;;;;;;;;;;;;;;;;;2058299;28;19926;-43
2021/11/30 01:37:40;;;;;;;;;;;;;;;;;;2055037;28;19930;-43
2021/11/30 01:38:41;;;;;;;;;;;;;;;;;;2050311;28;20455;-43
2021/11/30 01:39:42;;;;;;;;;;;;;;;;;;2050315;29;19931;-43
2021/11/30 01:40:43;;;;;;;;;;;;;;;;;;2055197;28;19931;-43
2021/11/30 01:41:45;;;;;;;;;;;;;;;;;;2058471;28;19981;-43
2021/11/30 01:42:48;;;;;;;;;;;;;;;;;;2058270;28;20017;-43
2021/11/30 01:43:50;;;;;;;;;;;;;;;;;;2053767;28;19985;-43
2021/11/30 01:44:54;;;;;;;;;;;;;;;;;;2050390;28;20013;-43
2021/11/30 01:46:00;;;;;;;;;;;;;;;;;;2051084;28;20028;-43
2021/11/30 01:47:11;;;;;;;;;;;;;;;;;;2056283;28;19926;-43
2021/11/30 01:49:34;;;;;;;;;;;;;;;;;;2056019;28;20365;-43
2021/11/30 01:50:35;;;;;;;;;;;;;;;;;;2058401;28;19981;-44
2021/11/30 01:51:36;;;;;;;;;;;;;;;;;;2058268;28;20323;-43
2021/11/30 01:52:37;;;;;;;;;;;;;;;;;;2054384;28;20434;-43
2021/11/30 01:53:38;;;;;;;;;;;;;;;;;;2058349;28;19965;-43
2021/11/30 01:54:39;;;;;;;;;;;;;;;;;;2058323;28;19965;-43
2021/11/30 01:55:43;;;;;;;;;;;;;;;;;;2055104;28;20009;-43
2021/11/30 01:56:44;;;;;;;;;;;;;;;;;;2058279;28;20009;-43
2021/11/30 01:57:45;;;;;;;;;;;;;;;;;;2056820;28;19930;-43
2021/11/30 01:58:45;;;;;;;;;;;;;;;;;;2055987;28;20413;-43
2021/11/30 01:59:47;;;;;;;;;;;;;;;;;;2058315;28;19969;-43
2021/11/30 02:00:47;;;;;;;;;;;;;;;;;;2057601;28;20025;-43
2021/11/30 02:01:49;;;;;;;;;;;;;;;;;;2056420;28;19926;-43
2021/11/30 02:02:49;;;;;;;;;;;;;;;;;;2057114;28;19926;-43
2021/11/30 02:03:51;;;;;;;;;;;;;;;;;;2063439;28;20290;-43
2021/11/30 02:04:51;;;;;;;;;;;;;;;;;;2055692;28;19926;-43
2021/11/30 02:05:52;;;;;;;;;;;;;;;;;;2058218;28;19932;-43
2021/11/30 02:06:53;;;;;;;;;;;;;;;;;;2057017;28;19968;-43
2021/11/30 02:07:54;;;;;;;;;;;;;;;;;;2056793;28;20414;-43
2021/11/30 02:08:55;;;;;;;;;;;;;;;;;;2058255;28;19985;-43
2021/11/30 02:09:56;;;;;;;;;;;;;;;;;;2055770;28;19930;-43
2021/11/30 02:10:57;;;;;;;;;;;;;;;;;;2057112;28;20009;-43
2021/11/30 02:11:58;;;;;;;;;;;;;;;;;;2058063;28;20292;-43
2021/11/30 02:12:59;;;;;;;;;;;;;;;;;;2057044;28;20439;-43
2021/11/30 02:14:00;;;;;;;;;;;;;;;;;;2056807;28;19926;-43
2021/11/30 02:15:01;;;;;;;;;;;;;;;;;;2058091;28;20418;-43
2021/11/30 02:16:03;;;;;;;;;;;;;;;;;;2056443;28;19973;-43
2021/11/30 02:17:05;;;;;;;;;;;;;;;;;;2056825;28;19933;-43
2021/11/30 02:18:12;;;;;;;;;;;;;;;;;;2058105;28;19926;-43
2021/11/30 02:19:13;;;;;;;;;;;;;;;;;;2055814;28;20064;-43
2021/11/30 02:20:14;;;;;;;;;;;;;;;;;;2050113;29;19977;-43
2021/11/30 02:21:16;;;;;;;;;;;;;;;;;;2050018;29;20375;-43
2021/11/30 02:22:17;;;;;;;;;;;;;;;;;;2053889;28;19949;-43
2021/11/30 02:23:30;;;;;;;;;;;;;;;;;;2058136;28;20001;-43
2021/11/30 02:24:31;;;;;;;;;;;;;;;;;;2057421;28;20075;-43
2021/11/30 02:25:32;;;;;;;;;;;;;;;;;;2056441;28;20033;-43
2021/11/30 02:26:34;;;;;;;;;;;;;;;;;;2057720;28;19949;-43
2021/11/30 02:27:36;;;;;;;;;;;;;;;;;;2057319;28;19933;-43
2021/11/30 02:28:37;;;;;;;;;;;;;;;;;;2056571;28;19926;-43
2021/11/30 02:29:37;;;;;;;;;;;;;;;;;;2058162;28;19969;-43
2021/11/30 02:30:38;;;;;;;;;;;;;;;;;;2057153;28;20339;-43
2021/11/30 02:31:41;;;;;;;;;;;;;;;;;;2056516;28;19933;-43
2021/11/30 02:32:42;;;;;;;;;;;;;;;;;;2057945;28;20068;-43
2021/11/30 02:33:43;;;;;;;;;;;;;;;;;;2056592;28;20338;-43
2021/11/30 02:34:44;;;;;;;;;;;;;;;;;;2057082;28;19930;-43
2021/11/30 02:35:44;;;;;;;;;;;;;;;;;;2058138;28;19961;-43
2021/11/30 02:36:51;;;;;;;;;;;;;;;;;;2056051;28;19930;-43
2021/11/30 02:37:57;;;;;;;;;;;;;;;;;;2057398;28;20013;-43
2021/11/30 02:38:59;;;;;;;;;;;;;;;;;;2058173;28;19926;-43
2021/11/30 02:39:59;;;;;;;;;;;;;;;;;;2054253;28;20028;-43
2021/11/30 02:41:00;;;;;;;;;;;;;;;;;;2058111;28;19930;-43
2021/11/30 02:42:02;;;;;;;;;;;;;;;;;;2057841;28;20456;-44
2021/11/30 02:43:03;;;;;;;;;;;;;;;;;;2055514;28;20403;-43
2021/11/30 02:44:04;;;;;;;;;;;;;;;;;;2057937;28;19969;-43
2021/11/30 02:45:05;;;;;;;;;;;;;;;;;;2057953;28;19930;-43
2021/11/30 02:46:06;;;;;;;;;;;;;;;;;;2054764;28;20109;-44
2021/11/30 02:47:07;;;;;;;;;;;;;;;;;;2057913;28;19926;-43
2021/11/30 02:48:07;;;;;;;;;;;;;;;;;;2057608;28;20005;-43
2021/11/30 02:49:08;;;;;;;;;;;;;;;;;;2055952;28;19954;-43
2021/11/30 02:50:09;;;;;;;;;;;;;;;;;;2057926;28;20472;-43
2021/11/30 02:51:11;;;;;;;;;;;;;;;;;;2057306;28;19926;-43
2021/11/30 02:52:12;;;;;;;;;;;;;;;;;;2055043;28;20455;-43
2021/11/30 02:53:16;;;;;;;;;;;;;;;;;;2057853;28;20067;-43
2021/11/30 02:54:17;;;;;;;;;;;;;;;;;;2057132;28;20028;-43
2021/11/30 02:55:19;;;;;;;;;;;;;;;;;;2056413;28;20063;-43
2021/11/30 02:56:20;;;;;;;;;;;;;;;;;;2057987;28;20286;-43
2021/11/30 02:57:21;;;;;;;;;;;;;;;;;;2055637;28;19933;-43
2021/11/30 02:58:22;;;;;;;;;;;;;;;;;;2056311;28;20063;-43
2021/11/30 02:59:23;;;;;;;;;;;;;;;;;;2057970;28;19926;-43
2021/11/30 03:00:24;;;;;;;;;;;;;;;;;;2056821;28;19926;-43
2021/11/30 03:01:26;;;;;;;;;;;;;;;;;;2056466;28;20061;-43
2021/11/30 03:02:27;;;;;;;;;;;;;;;;;;2057698;28;19926;-43
2021/11/30 03:03:28;;;;;;;;;;;;;;;;;;2055228;28;19926;-43
2021/11/30 03:04:29;;;;;;;;;;;;;;;;;;2057550;28;19933;-43
2021/11/30 03:05:30;;;;;;;;;;;;;;;;;;2057871;28;19992;-43
2021/11/30 03:06:31;;;;;;;;;;;;;;;;;;2055201;28;19927;-43
2021/11/30 03:07:36;;;;;;;;;;;;;;;;;;2057174;28;20351;-43
2021/11/30 03:08:37;;;;;;;;;;;;;;;;;;2058016;28;20017;-43
2021/11/30 03:09:38;;;;;;;;;;;;;;;;;;2055633;28;20017;-43
2021/11/30 03:10:39;;;;;;;;;;;;;;;;;;2057582;28;19930;-43
2021/11/30 03:11:39;;;;;;;;;;;;;;;;;;2058128;28;20013;-46
2021/11/30 03:12:40;;;;;;;;;;;;;;;;;;2055492;28;19942;-47
2021/11/30 03:13:41;;;;;;;;;;;;;;;;;;2057700;28;20314;-47
2021/11/30 03:14:42;;;;;;;;;;;;;;;;;;2057911;28;19934;-48
2021/11/30 03:15:43;;;;;;;;;;;;;;;;;;2053098;28;19931;-48
2021/11/30 03:16:44;;;;;;;;;;;;;;;;;;2057871;28;19936;-47
2021/11/30 03:17:45;;;;;;;;;;;;;;;;;;2057036;28;19969;-46
2021/11/30 03:18:46;;;;;;;;;;;;;;;;;;2054802;28;19934;-47
2021/11/30 03:19:47;;;;;;;;;;;;;;;;;;2057669;28;20361;-49
2021/11/30 03:20:48;;;;;;;;;;;;;;;;;;2057337;28;19927;-46
2021/11/30 03:21:48;;;;;;;;;;;;;;;;;;2055888;28;20012;-47
2021/11/30 03:22:49;;;;;;;;;;;;;;;;;;2057257;28;19927;-47
2021/11/30 03:23:50;;;;;;;;;;;;;;;;;;2057294;28;19926;-48
2021/11/30 03:24:51;;;;;;;;;;;;;;;;;;2056170;28;19926;-46
2021/11/30 03:25:52;;;;;;;;;;;;;;;;;;2057659;28;19988;-48
2021/11/30 03:26:53;;;;;;;;;;;;;;;;;;2054327;28;19933;-46
2021/11/30 03:27:54;;;;;;;;;;;;;;;;;;2056454;28;19930;-48
2021/11/30 03:28:55;;;;;;;;;;;;;;;;;;2057495;28;20438;-47
2021/11/30 03:29:56;;;;;;;;;;;;;;;;;;2055381;28;19969;-46
2021/11/30 03:31:02;;;;;;;;;;;;;;;;;;2050226;28;19927;-47
2021/11/30 03:32:07;;;;;;;;;;;;;;;;;;2049784;28;19996;-47
2021/11/30 03:34:28;;;;;;;;;;;;;;;;;;2057708;28;20013;-47
2021/11/30 03:35:29;;;;;;;;;;;;;;;;;;2056896;28;19930;-49
2021/11/30 03:36:30;;;;;;;;;;;;;;;;;;2055915;28;19926;-46
2021/11/30 03:37:31;;;;;;;;;;;;;;;;;;2057621;28;20380;-47
2021/11/30 03:38:32;;;;;;;;;;;;;;;;;;2056681;28;19957;-47
2021/11/30 03:39:33;;;;;;;;;;;;;;;;;;2056300;28;20013;-48
2021/11/30 03:40:34;;;;;;;;;;;;;;;;;;2057544;28;20407;-46
2021/11/30 03:41:34;;;;;;;;;;;;;;;;;;2056911;28;19980;-46
2021/11/30 03:42:35;;;;;;;;;;;;;;;;;;2055988;28;19930;-48
2021/11/30 03:43:37;;;;;;;;;;;;;;;;;;2057502;28;20050;-49
2021/11/30 03:44:38;;;;;;;;;;;;;;;;;;2056472;28;20020;-46
2021/11/30 03:45:38;;;;;;;;;;;;;;;;;;2056627;28;19926;-50
2021/11/30 03:46:40;;;;;;;;;;;;;;;;;;2057584;28;19926;-46
2021/11/30 03:47:41;;;;;;;;;;;;;;;;;;2055658;28;19926;-47
2021/11/30 03:48:43;;;;;;;;;;;;;;;;;;2057334;28;19933;-46
2021/11/30 03:49:43;;;;;;;;;;;;;;;;;;2057500;28;20474;-46
2021/11/30 03:50:44;;;;;;;;;;;;;;;;;;2055535;28;19938;-49
2021/11/30 03:51:45;;;;;;;;;;;;;;;;;;2057249;28;20426;-48
2021/11/30 03:52:46;;;;;;;;;;;;;;;;;;2057484;28;19933;-48
2021/11/30 03:53:47;;;;;;;;;;;;;;;;;;2054253;28;20335;-49
2021/11/30 03:54:48;;;;;;;;;;;;;;;;;;2057663;28;19933;-43
2021/11/30 03:55:49;;;;;;;;;;;;;;;;;;2057451;28;20290;-43
2021/11/30 03:56:50;;;;;;;;;;;;;;;;;;2055456;28;19926;-44
2021/11/30 03:57:51;;;;;;;;;;;;;;;;;;2057417;28;20008;-44
2021/11/30 03:58:52;;;;;;;;;;;;;;;;;;2057431;28;20038;-44
2021/11/30 03:59:52;;;;;;;;;;;;;;;;;;2055228;28;20304;-43
2021/11/30 04:00:54;;;;;;;;;;;;;;;;;;2057654;28;19972;-44
2021/11/30 04:01:54;;;;;;;;;;;;;;;;;;2057523;28;19930;-43
2021/11/30 04:02:56;;;;;;;;;;;;;;;;;;2052413;28;19933;-43
2021/11/30 04:03:57;;;;;;;;;;;;;;;;;;2057669;28;19926;-44
2021/11/30 04:04:58;;;;;;;;;;;;;;;;;;2057012;28;20450;-44
2021/11/30 04:05:58;;;;;;;;;;;;;;;;;;2055810;28;20427;-44
2021/11/30 04:07:00;;;;;;;;;;;;;;;;;;2057358;28;19926;-44
2021/11/30 04:08:00;;;;;;;;;;;;;;;;;;2057203;28;20032;-46
2021/11/30 04:09:01;;;;;;;;;;;;;;;;;;2055638;28;19933;-46
2021/11/30 04:10:02;;;;;;;;;;;;;;;;;;2057396;28;19977;-46
2021/11/30 04:11:03;;;;;;;;;;;;;;;;;;2056870;28;20137;-47
2021/11/30 04:12:05;;;;;;;;;;;;;;;;;;2055603;28;19986;-48
2021/11/30 04:13:06;;;;;;;;;;;;;;;;;;2057543;28;19926;-47
2021/11/30 04:14:07;;;;;;;;;;;;;;;;;;2055546;28;20352;-47
2021/11/30 04:15:07;;;;;;;;;;;;;;;;;;2056111;28;19980;-46
2021/11/30 04:16:09;;;;;;;;;;;;;;;;;;2057441;28;19926;-46
2021/11/30 04:17:09;;;;;;;;;;;;;;;;;;2056589;28;20004;-49
2021/11/30 04:18:10;;;;;;;;;;;;;;;;;;2055900;28;19926;-46
2021/11/30 04:19:11;;;;;;;;;;;;;;;;;;2057017;28;20028;-47
2021/11/30 04:20:12;;;;;;;;;;;;;;;;;;2056357;28;19926;-47
2021/11/30 04:21:13;;;;;;;;;;;;;;;;;;2055153;28;19969;-48
2021/11/30 04:22:14;;;;;;;;;;;;;;;;;;2057306;28;19933;-46
2021/11/30 04:23:15;;;;;;;;;;;;;;;;;;2056319;28;20009;-46
2021/11/30 04:24:16;;;;;;;;;;;;;;;;;;2056267;28;19926;-47
2021/11/30 04:25:17;;;;;;;;;;;;;;;;;;2057325;28;20020;-46
2021/11/30 04:26:18;;;;;;;;;;;;;;;;;;2054924;28;19926;-49
2021/11/30 04:27:19;;;;;;;;;;;;;;;;;;2056496;28;19969;-46
2021/11/30 04:28:20;;;;;;;;;;;;;;;;;;2057293;28;19926;-47
2021/11/30 04:29:21;;;;;;;;;;;;;;;;;;2053047;28;20213;-47
2021/11/30 04:30:25;;;;;;;;;;;;;;;;;;2056908;28;19933;-46
2021/11/30 04:31:28;;;;;;;;;;;;;;;;;;2057427;28;19933;-46
2021/11/30 04:32:29;;;;;;;;;;;;;;;;;;2054794;28;20069;-46
2021/11/30 04:33:30;;;;;;;;;;;;;;;;;;2057416;28;19926;-46
2021/11/30 04:34:31;;;;;;;;;;;;;;;;;;2057227;28;20403;-47
2021/11/30 04:35:32;;;;;;;;;;;;;;;;;;2055103;28;19927;-46
2021/11/30 04:36:33;;;;;;;;;;;;;;;;;;2057262;28;19927;-47
2021/11/30 04:37:35;;;;;;;;;;;;;;;;;;2056674;28;19937;-46
2021/11/30 04:38:36;;;;;;;;;;;;;;;;;;2053890;28;19934;-45
2021/11/30 04:39:37;;;;;;;;;;;;;;;;;;2057217;28;20013;-46
2021/11/30 04:40:38;;;;;;;;;;;;;;;;;;2056822;28;20442;-47
2021/11/30 04:41:42;;;;;;;;;;;;;;;;;;2055321;28;20001;-46
2021/11/30 04:42:45;;;;;;;;;;;;;;;;;;2057227;28;19926;-45
2021/11/30 04:43:46;;;;;;;;;;;;;;;;;;2056461;28;20060;-46
2021/11/30 04:44:55;;;;;;;;;;;;;;;;;;2055653;28;19930;-46
2021/11/30 04:45:59;;;;;;;;;;;;;;;;;;2057243;28;19929;-50
2021/11/30 04:47:02;;;;;;;;;;;;;;;;;;2055340;28;19926;-47
2021/11/30 04:48:03;;;;;;;;;;;;;;;;;;2057152;28;20017;-47
2021/11/30 04:49:11;;;;;;;;;;;;;;;;;;2057325;28;19926;-47
2021/11/30 04:50:16;;;;;;;;;;;;;;;;;;2055087;28;20024;-47
2021/11/30 04:51:17;;;;;;;;;;;;;;;;;;2057330;28;20016;-46
2021/11/30 04:52:18;;;;;;;;;;;;;;;;;;2057166;28;20315;-46
2021/11/30 04:53:20;;;;;;;;;;;;;;;;;;2053811;28;20408;-46
2021/11/30 04:54:22;;;;;;;;;;;;;;;;;;2057221;28;19976;-47
2021/11/30 04:55:25;;;;;;;;;;;;;;;;;;2056632;28;20018;-46
2021/11/30 04:56:26;;;;;;;;;;;;;;;;;;2054654;28;20021;-49
2021/11/30 04:57:27;;;;;;;;;;;;;;;;;;2057231;28;19926;-46
2021/11/30 04:58:28;;;;;;;;;;;;;;;;;;2055623;28;19977;-50
2021/11/30 04:59:29;;;;;;;;;;;;;;;;;;2055040;28;19934;-46
2021/11/30 05:00:30;;;;;;;;;;;;;;;;;;2057267;28;20016;-47
2021/11/30 05:01:31;;;;;;;;;;;;;;;;;;2056541;28;19926;-46
2021/11/30 05:02:32;;;;;;;;;;;;;;;;;;2054421;28;20691;-48
2021/11/30 05:03:33;;;;;;;;;;;;;;;;;;2061861;28;19926;-51
2021/11/30 05:04:34;;;;;;;;;;;;;;;;;;2061745;28;20294;-46
2021/11/30 05:05:35;;;;;;;;;;;;;;;;;;2055614;28;19930;-46
2021/11/30 05:06:36;;;;;;;;;;;;;;;;;;2057231;28;19926;-45
2021/11/30 05:07:37;;;;;;;;;;;;;;;;;;2056240;28;19926;-47
2021/11/30 05:08:38;;;;;;;;;;;;;;;;;;2055588;28;20013;-46
2021/11/30 05:09:39;;;;;;;;;;;;;;;;;;2057087;28;19936;-47
2021/11/30 05:10:40;;;;;;;;;;;;;;;;;;2055733;28;19930;-47
2021/11/30 05:11:41;;;;;;;;;;;;;;;;;;2055177;28;20343;-46
2021/11/30 05:12:42;;;;;;;;;;;;;;;;;;2057064;28;19930;-47
2021/11/30 05:13:43;;;;;;;;;;;;;;;;;;2055174;28;20368;-46
2021/11/30 05:14:44;;;;;;;;;;;;;;;;;;2056519;28;20072;-47
2021/11/30 05:15:45;;;;;;;;;;;;;;;;;;2057126;28;20336;-49
2021/11/30 05:16:45;;;;;;;;;;;;;;;;;;2054813;28;19930;-46
2021/11/30 05:17:46;;;;;;;;;;;;;;;;;;2056857;28;19926;-46
2021/11/30 05:18:47;;;;;;;;;;;;;;;;;;2057137;28;19930;-46
2021/11/30 05:19:48;;;;;;;;;;;;;;;;;;2054953;28;19926;-47
2021/11/30 05:20:49;;;;;;;;;;;;;;;;;;2056923;28;19957;-46
2021/11/30 05:21:50;;;;;;;;;;;;;;;;;;2057062;28;20296;-47
2021/11/30 05:22:53;;;;;;;;;;;;;;;;;;2055129;28;20001;-46
2021/11/30 05:23:59;;;;;;;;;;;;;;;;;;2049196;29;20054;-48
2021/11/30 05:25:00;;;;;;;;;;;;;;;;;;2049104;29;20017;-47
2021/11/30 05:26:03;;;;;;;;;;;;;;;;;;2053126;28;19927;-46
2021/11/30 05:27:04;;;;;;;;;;;;;;;;;;2057094;28;20016;-46
2021/11/30 05:28:05;;;;;;;;;;;;;;;;;;2056443;28;19937;-46
2021/11/30 05:29:06;;;;;;;;;;;;;;;;;;2055141;28;19970;-47
2021/11/30 05:30:07;;;;;;;;;;;;;;;;;;2057093;28;20324;-46
2021/11/30 05:31:08;;;;;;;;;;;;;;;;;;2056328;28;20033;-46
2021/11/30 05:32:09;;;;;;;;;;;;;;;;;;2055294;28;20016;-46
2021/11/30 05:33:10;;;;;;;;;;;;;;;;;;2057012;28;20017;-47
2021/11/30 05:34:13;;;;;;;;;;;;;;;;;;2056542;28;20343;-47
2021/11/30 05:35:13;;;;;;;;;;;;;;;;;;2055136;28;20483;-46
2021/11/30 05:36:15;;;;;;;;;;;;;;;;;;2056980;28;19937;-47
2021/11/30 05:37:16;;;;;;;;;;;;;;;;;;2056055;28;19965;-46
2021/11/30 05:38:16;;;;;;;;;;;;;;;;;;2055621;28;20009;-48
2021/11/30 05:39:17;;;;;;;;;;;;;;;;;;2056928;28;19973;-47
2021/11/30 05:40:18;;;;;;;;;;;;;;;;;;2055817;28;20435;-47
2021/11/30 05:41:19;;;;;;;;;;;;;;;;;;2055800;28;20015;-47
2021/11/30 05:42:20;;;;;;;;;;;;;;;;;;2056846;28;19966;-46
2021/11/30 05:43:21;;;;;;;;;;;;;;;;;;2054225;28;20426;-45
2021/11/30 05:44:22;;;;;;;;;;;;;;;;;;2056296;28;20386;-44
2021/11/30 05:45:23;;;;;;;;;;;;;;;;;;2057248;28;19926;-44
2021/11/30 05:46:24;;;;;;;;;;;;;;;;;;2054561;28;20024;-44
2021/11/30 05:47:25;;;;;;;;;;;;;;;;;;2055728;28;20000;-43
2021/11/30 05:48:26;;;;;;;;;;;;;;;;;;2056867;28;20395;-44
2021/11/30 05:49:27;;;;;;;;;;;;;;;;;;2054884;28;19942;-43
2021/11/30 05:50:28;;;;;;;;;;;;;;;;;;2056712;28;20020;-43
2021/11/30 05:51:29;;;;;;;;;;;;;;;;;;2058388;28;19926;-48
2021/11/30 05:52:30;;;;;;;;;;;;;;;;;;2054810;28;20102;-49
2021/11/30 05:53:31;;;;;;;;;;;;;;;;;;2058360;28;20295;-47
2021/11/30 05:54:32;;;;;;;;;;;;;;;;;;2058527;28;20009;-46
2021/11/30 05:55:36;;;;;;;;;;;;;;;;;;2055273;28;20012;-46
2021/11/30 05:56:37;;;;;;;;;;;;;;;;;;2050299;28;20447;-46
2021/11/30 05:57:39;;;;;;;;;;;;;;;;;;2050306;28;19927;-48
2021/11/30 05:58:43;;;;;;;;;;;;;;;;;;2054197;28;20416;-47
2021/11/30 05:59:44;;;;;;;;;;;;;;;;;;2058140;28;20036;-44
2021/11/30 06:00:45;;;;;;;;;;;;;;;;;;2057746;28;20443;-45
2021/11/30 06:01:50;;;;;;;;;;;;;;;;;;2055506;28;19993;-43
2021/11/30 06:03:01;;;;;;;;;;;;;;;;;;2057176;28;19949;-44
2021/11/30 06:04:03;;;;;;;;;;;;;;;;;;2060283;28;20392;-43
2021/11/30 06:05:03;;;;;;;;;;;;;;;;;;2057302;28;20032;-44
2021/11/30 06:06:05;;;;;;;;;;;;;;;;;;2058336;28;19953;-44
2021/11/30 06:07:06;;;;;;;;;;;;;;;;;;2055207;28;20008;-47
2021/11/30 06:08:06;;;;;;;;;;;;;;;;;;2056744;28;19933;-46
2021/11/30 06:09:08;;;;;;;;;;;;;;;;;;2058191;28;20372;-46
2021/11/30 06:10:08;;;;;;;;;;;;;;;;;;2057132;28;20012;-47
2021/11/30 06:11:09;;;;;;;;;;;;;;;;;;2054472;28;19926;-47
2021/11/30 06:12:10;;;;;;;;;;;;;;;;;;2058138;28;20016;-47
2021/11/30 06:13:11;;;;;;;;;;;;;;;;;;2057122;28;20276;-47
2021/11/30 06:14:12;;;;;;;;;;;;;;;;;;2050139;28;19930;-46
2021/11/30 06:15:13;;;;;;;;;;;;;;;;;;2050255;28;19927;-46
2021/11/30 06:16:14;;;;;;;;;;;;;;;;;;2053979;28;19934;-47
2021/11/30 06:17:15;;;;;;;;;;;;;;;;;;2058200;28;19933;-45
2021/11/30 06:18:16;;;;;;;;;;;;;;;;;;2058068;28;19996;-44
2021/11/30 06:19:19;;;;;;;;;;;;;;;;;;2055805;28;20017;-44
2021/11/30 06:20:21;;;;;;;;;;;;;;;;;;2058129;28;20061;-44
2021/11/30 06:21:23;;;;;;;;;;;;;;;;;;2058118;28;19926;-44
2021/11/30 06:22:24;;;;;;;;;;;;;;;;;;2055769;28;20392;-44
2021/11/30 06:23:25;;;;;;;;;;;;;;;;;;2057918;28;20061;-44
2021/11/30 06:24:26;;;;;;;;;;;;;;;;;;2057190;28;20279;-44
2021/11/30 06:25:27;;;;;;;;;;;;;;;;;;2053866;28;19926;-46
2021/11/30 06:26:28;;;;;;;;;;;;;;;;;;2050091;28;19927;-46
2021/11/30 06:27:29;;;;;;;;;;;;;;;;;;2049606;28;19927;-47
2021/11/30 06:28:29;;;;;;;;;;;;;;;;;;2056125;28;19965;-46
2021/11/30 06:29:30;;;;;;;;;;;;;;;;;;2057995;28;19927;-46
2021/11/30 06:30:31;;;;;;;;;;;;;;;;;;2057352;28;19962;-47
2021/11/30 06:31:32;;;;;;;;;;;;;;;;;;2056249;28;19930;-46
2021/11/30 06:32:33;;;;;;;;;;;;;;;;;;2057961;28;20013;-46
2021/11/30 06:33:34;;;;;;;;;;;;;;;;;;2057397;28;19926;-47
2021/11/30 06:34:35;;;;;;;;;;;;;;;;;;2056345;28;20016;-47
2021/11/30 06:35:37;;;;;;;;;;;;;;;;;;2058031;28;19934;-48
2021/11/30 06:36:38;;;;;;;;;;;;;;;;;;2057077;28;19926;-47
2021/11/30 06:37:40;;;;;;;;;;;;;;;;;;2056472;28;19954;-47
2021/11/30 06:38:41;;;;;;;;;;;;;;;;;;2058132;28;19926;-46
2021/11/30 06:39:41;;;;;;;;;;;;;;;;;;2055321;28;20061;-47
2021/11/30 06:40:42;;;;;;;;;;;;;;;;;;2057175;28;19930;-47
2021/11/30 06:41:44;;;;;;;;;;;;;;;;;;2058146;28;20044;-46
2021/11/30 06:42:45;;;;;;;;;;;;;;;;;;2055690;28;19934;-46
2021/11/30 06:43:46;;;;;;;;;;;;;;;;;;2057840;28;20268;-46
2021/11/30 06:44:47;;;;;;;;;;;;;;;;;;2058004;28;19957;-46
2021/11/30 06:45:48;;;;;;;;;;;;;;;;;;2055901;28;19985;-44
2021/11/30 06:46:49;;;;;;;;;;;;;;;;;;2057068;28;20013;-43
2021/11/30 06:47:50;;;;;;;;;;;;;;;;;;2057929;28;19926;-43
2021/11/30 06:48:51;;;;;;;;;;;;;;;;;;2054936;28;20021;-46
2021/11/30 06:49:52;;;;;;;;;;;;;;;;;;2057761;28;19934;-46
2021/11/30 06:50:53;;;;;;;;;;;;;;;;;;2058067;28;20017;-45
2021/11/30 06:51:54;;;;;;;;;;;;;;;;;;2054547;28;19926;-46
2021/11/30 06:52:55;;;;;;;;;;;;;;;;;;2049960;29;20411;-45
2021/11/30 06:53:56;;;;;;;;;;;;;;;;;;2050113;29;19931;-45
2021/11/30 06:54:57;;;;;;;;;;;;;;;;;;2053685;28;20106;-46
2021/11/30 06:55:58;;;;;;;;;;;;;;;;;;2057753;28;19934;-45
2021/11/30 06:56:58;;;;;;;;;;;;;;;;;;2057935;28;19926;-46
2021/11/30 06:58:00;;;;;;;;;;;;;;;;;;2055529;28;20257;-45
2021/11/30 06:59:01;;;;;;;;;;;;;;;;;;2057970;28;20020;-46
2021/11/30 07:00:04;;;;;;;;;;;;;;;;;;2057325;28;19926;-46
2021/11/30 07:01:07;;;;;;;;;;;;;;;;;;2054946;28;20044;-46
2021/11/30 07:02:09;;;;;;;;;;;;;;;;;;2057594;28;19926;-47
2021/11/30 07:03:10;;;;;;;;;;;;;;;;;;2057073;28;20033;-46